createdAt,value
2023-06-30T00:00:13.976Z,100590.85
2023-06-30T00:03:07.256Z,100592.53
2023-06-30T00:05:39.736Z,100593.47
2023-06-30T00:08:12.740Z,100596.25
2023-06-30T00:10:45.126Z,100597.30
2023-06-30T00:13:17.690Z,100595.52
2023-06-30T00:15:51.005Z,100598.77
2023-06-30T00:18:25.682Z,100596.52
2023-06-30T00:20:58.726Z,100595.87
2023-06-30T00:23:32.001Z,100596.33
2023-06-30T00:26:04.768Z,100589.48
2023-06-30T00:28:38.336Z,100594.36
2023-06-30T00:31:11.205Z,100595.18
2023-06-30T00:33:43.644Z,100594.96
2023-06-30T00:36:16.354Z,100593.63
2023-06-30T00:38:51.189Z,100596.70
2023-06-30T00:41:24.559Z,100593.48
2023-06-30T00:43:57.167Z,100593.34
2023-06-30T00:46:30.218Z,100591.33
2023-06-30T00:49:03.418Z,100585.46
2023-06-30T00:51:36.186Z,100583.88
2023-06-30T00:54:09.121Z,100580.39
2023-06-30T00:56:41.909Z,100574.28
2023-06-30T00:59:14.551Z,100573.37
2023-06-30T01:01:55.026Z,100575.80
2023-06-30T01:04:37.636Z,100573.84
2023-06-30T01:07:17.363Z,100574.54
2023-06-30T01:09:55.149Z,100577.71
2023-06-30T01:12:29.618Z,100581.55
2023-06-30T01:15:04.090Z,100580.32
2023-06-30T01:17:47.557Z,100579.88
2023-06-30T01:20:22.428Z,100574.77
2023-06-30T01:22:59.259Z,100581.77
2023-06-30T01:25:32.997Z,100578.19
2023-06-30T01:28:07.560Z,100576.04
2023-06-30T01:30:41.411Z,100572.12
2023-06-30T01:33:15.364Z,100569.08
2023-06-30T01:35:48.233Z,100574.00
2023-06-30T01:38:21.500Z,100576.50
2023-06-30T01:40:54.495Z,100575.98
2023-06-30T01:43:28.341Z,100573.70
2023-06-30T01:46:01.331Z,100570.78
2023-06-30T01:48:35.088Z,100571.02
2023-06-30T01:51:11.209Z,100571.16
2023-06-30T01:53:44.946Z,100570.19
2023-06-30T01:56:17.705Z,100570.48
2023-06-30T01:58:51.172Z,100576.45
2023-06-30T02:01:24.417Z,100574.83
2023-06-30T02:03:57.679Z,100574.27
2023-06-30T02:06:30.657Z,100577.74
2023-06-30T02:09:04.597Z,100577.94
2023-06-30T02:11:37.291Z,100579.99
2023-06-30T02:14:10.354Z,100576.23
2023-06-30T02:16:45.029Z,100571.56
2023-06-30T02:19:18.821Z,100568.73
2023-06-30T02:21:52.135Z,100570.08
2023-06-30T02:24:25.317Z,100575.45
2023-06-30T02:26:59.037Z,100579.45
2023-06-30T02:29:32.645Z,100574.66
2023-06-30T02:32:06.278Z,100576.06
2023-06-30T02:34:40.181Z,100578.55
2023-06-30T02:37:13.764Z,100580.08
2023-06-30T02:39:46.632Z,100579.29
2023-06-30T02:42:19.372Z,100581.95
2023-06-30T02:44:53.190Z,100584.98
2023-06-30T02:47:26.210Z,100583.66
2023-06-30T02:49:59.713Z,100589.29
2023-06-30T02:52:32.953Z,100589.77
2023-06-30T02:55:07.493Z,100590.05
2023-06-30T02:57:40.780Z,100586.77
2023-06-30T03:00:18.762Z,100586.19
2023-06-30T03:02:52.318Z,100588.30
2023-06-30T03:05:26.094Z,100596.77
2023-06-30T03:07:59.529Z,100596.69
2023-06-30T03:10:33.209Z,100595.40
2023-06-30T03:13:07.502Z,100598.16
2023-06-30T03:15:40.598Z,100599.73
2023-06-30T03:18:14.314Z,100598.39
2023-06-30T03:20:46.818Z,100597.67
2023-06-30T03:23:20.309Z,100598.83
2023-06-30T03:25:53.421Z,100602.95
2023-06-30T03:28:27.423Z,100602.73
2023-06-30T03:31:00.237Z,100601.80
2023-06-30T03:33:33.350Z,100599.89
2023-06-30T03:36:06.336Z,100599.77
2023-06-30T03:38:38.916Z,100602.70
2023-06-30T03:41:11.689Z,100601.45
2023-06-30T03:43:44.492Z,100601.00
2023-06-30T03:46:17.998Z,100598.09
2023-06-30T03:48:51.497Z,100598.00
2023-06-30T03:51:24.392Z,100592.28
2023-06-30T03:53:58.677Z,100588.81
2023-06-30T03:56:31.735Z,100590.14
2023-06-30T03:59:04.954Z,100592.47
2023-06-30T04:01:38.023Z,100594.66
2023-06-30T04:04:12.060Z,100597.52
2023-06-30T04:06:46.075Z,100595.97
2023-06-30T04:09:18.875Z,100595.52
2023-06-30T04:11:52.266Z,100591.02
2023-06-30T04:14:24.797Z,100585.88
2023-06-30T04:16:59.429Z,100588.75
2023-06-30T04:19:32.197Z,100587.31
2023-06-30T04:22:05.595Z,100582.49
2023-06-30T04:24:38.642Z,100582.80
2023-06-30T04:27:12.385Z,100582.86
2023-06-30T04:29:44.928Z,100584.48
2023-06-30T04:32:17.471Z,100585.84
2023-06-30T04:34:50.278Z,100592.71
2023-06-30T04:37:24.435Z,100592.02
2023-06-30T04:39:57.198Z,100592.86
2023-06-30T04:42:29.705Z,100594.60
2023-06-30T04:45:02.369Z,100592.66
2023-06-30T04:47:34.965Z,100594.86
2023-06-30T04:50:09.013Z,100597.59
2023-06-30T04:52:41.529Z,100602.75
2023-06-30T04:55:14.191Z,100605.13
2023-06-30T04:57:46.467Z,100610.30
2023-06-30T05:00:20.052Z,100614.05
2023-06-30T05:02:52.532Z,100613.80
2023-06-30T05:05:25.813Z,100620.88
2023-06-30T05:07:59.145Z,100624.16
2023-06-30T05:10:32.821Z,100626.67
2023-06-30T05:13:06.067Z,100622.09
2023-06-30T05:15:39.025Z,100621.77
2023-06-30T05:18:11.790Z,100621.88
2023-06-30T05:20:44.354Z,100622.87
2023-06-30T05:23:16.743Z,100625.52
2023-06-30T05:25:49.105Z,100626.98
2023-06-30T05:28:21.768Z,100628.55
2023-06-30T05:30:54.379Z,100632.20
2023-06-30T05:33:28.176Z,100634.94
2023-06-30T05:36:00.530Z,100633.77
2023-06-30T05:38:34.357Z,100632.50
2023-06-30T05:41:06.731Z,100636.68
2023-06-30T05:43:41.554Z,100637.23
2023-06-30T05:46:15.110Z,100638.24
2023-06-30T05:48:48.181Z,100638.43
2023-06-30T05:51:21.371Z,100634.31
2023-06-30T05:53:54.260Z,100634.28
2023-06-30T05:56:26.615Z,100633.51
2023-06-30T05:59:00.477Z,100635.51
2023-06-30T06:01:33.369Z,100633.19
2023-06-30T06:04:07.203Z,100632.85
2023-06-30T06:06:40.885Z,100631.52
2023-06-30T06:09:14.546Z,100631.11
2023-06-30T06:11:48.080Z,100629.90
2023-06-30T06:14:20.869Z,100629.44
2023-06-30T06:16:53.414Z,100625.27
2023-06-30T06:19:25.767Z,100628.05
2023-06-30T06:21:58.224Z,100626.58
2023-06-30T06:24:30.487Z,100627.65
2023-06-30T06:27:02.926Z,100627.34
2023-06-30T06:29:35.913Z,100628.11
2023-06-30T06:32:09.898Z,100626.89
2023-06-30T06:34:42.230Z,100626.58
2023-06-30T06:37:14.597Z,100624.53
2023-06-30T06:39:46.981Z,100620.04
2023-06-30T06:42:19.235Z,100619.20
2023-06-30T06:44:51.719Z,100619.63
2023-06-30T06:47:58.939Z,100620.24
2023-06-30T06:50:31.523Z,100621.52
2023-06-30T06:53:04.107Z,100622.69
2023-06-30T06:55:36.628Z,100622.58
2023-06-30T06:58:09.577Z,100621.73
2023-06-30T07:00:41.971Z,100623.74
2023-06-30T07:03:14.270Z,100613.46
2023-06-30T07:05:47.634Z,100616.56
2023-06-30T07:08:21.359Z,100614.61
2023-06-30T07:10:54.658Z,100615.02
2023-06-30T07:13:27.282Z,100615.75
2023-06-30T07:15:59.844Z,100619.35
2023-06-30T07:18:33.899Z,100615.22
2023-06-30T07:21:06.927Z,100615.23
2023-06-30T07:23:39.155Z,100615.58
2023-06-30T07:26:11.963Z,100615.85
2023-06-30T07:28:44.554Z,100619.01
2023-06-30T07:31:17.153Z,100622.11
2023-06-30T07:33:49.534Z,100622.02
2023-06-30T07:36:22.024Z,100621.20
2023-06-30T07:38:54.525Z,100615.54
2023-06-30T07:41:27.128Z,100614.04
2023-06-30T07:44:00.437Z,100618.52
2023-06-30T07:46:35.368Z,100613.23
2023-06-30T07:49:07.934Z,100611.90
2023-06-30T07:51:40.572Z,100610.11
2023-06-30T07:54:13.002Z,100606.10
2023-06-30T07:56:46.885Z,100607.30
2023-06-30T07:59:19.121Z,100604.51
2023-06-30T08:01:51.760Z,100603.55
2023-06-30T08:04:24.420Z,100600.91
2023-06-30T08:06:56.926Z,100592.18
2023-06-30T08:09:29.187Z,100592.89
2023-06-30T08:12:01.803Z,100594.41
2023-06-30T08:14:34.634Z,100587.17
2023-06-30T08:17:07.225Z,100586.16
2023-06-30T08:19:47.976Z,100586.73
2023-06-30T08:22:22.466Z,100590.61
2023-06-30T08:24:56.224Z,100585.77
2023-06-30T08:27:28.451Z,100582.06
2023-06-30T08:30:00.748Z,100585.91
2023-06-30T08:32:33.133Z,100586.23
2023-06-30T08:35:05.577Z,100584.81
2023-06-30T08:37:37.953Z,100582.64
2023-06-30T08:40:13.400Z,100580.33
2023-06-30T08:42:51.496Z,100578.15
2023-06-30T08:45:25.916Z,100578.60
2023-06-30T08:48:02.140Z,100574.70
2023-06-30T08:50:35.506Z,100575.88
2023-06-30T08:53:08.692Z,100576.69
2023-06-30T08:55:42.044Z,100576.66
2023-06-30T08:58:25.652Z,100572.42
2023-06-30T09:00:59.007Z,100571.45
2023-06-30T09:03:32.979Z,100568.39
2023-06-30T09:06:05.641Z,100570.77
2023-06-30T09:08:48.608Z,100568.59
2023-06-30T09:11:22.269Z,100568.45
2023-06-30T09:14:02.200Z,100563.19
2023-06-30T09:16:35.200Z,100563.42
2023-06-30T09:19:08.066Z,100559.13
2023-06-30T09:21:41.163Z,100561.23
2023-06-30T09:24:13.827Z,100558.98
2023-06-30T09:26:46.465Z,100555.25
2023-06-30T09:29:23.489Z,100550.97
2023-06-30T09:32:02.342Z,100554.09
2023-06-30T09:34:34.838Z,100557.27
2023-06-30T09:37:12.437Z,100557.64
2023-06-30T09:39:51.622Z,100557.17
2023-06-30T09:42:24.562Z,100549.46
2023-06-30T09:44:57.833Z,100547.02
2023-06-30T09:47:31.749Z,100543.27
2023-06-30T09:50:04.430Z,100543.02
2023-06-30T09:52:38.795Z,100539.52
2023-06-30T09:55:13.509Z,100538.11
2023-06-30T09:57:47.384Z,100533.20
2023-06-30T10:00:33.913Z,100529.70
2023-06-30T10:03:10.010Z,100522.46
2023-06-30T10:05:42.716Z,100523.63
2023-06-30T10:08:16.086Z,100525.27
2023-06-30T10:10:48.975Z,100516.48
2023-06-30T10:13:23.473Z,100520.14
2023-06-30T10:15:56.426Z,100520.67
2023-06-30T10:18:29.095Z,100515.06
2023-06-30T10:21:01.514Z,100511.45
2023-06-30T10:23:35.827Z,100508.10
2023-06-30T10:26:10.071Z,100509.98
2023-06-30T10:28:42.547Z,100511.38
2023-06-30T10:31:14.959Z,100509.96
2023-06-30T10:33:47.634Z,100506.39
2023-06-30T10:36:20.940Z,100501.35
2023-06-30T10:38:55.288Z,100502.33
2023-06-30T10:41:27.717Z,100508.05
2023-06-30T10:44:13.436Z,100502.86
2023-06-30T10:46:48.477Z,100505.12
2023-06-30T10:49:28.860Z,100496.20
2023-06-30T10:52:04.848Z,100498.96
2023-06-30T10:54:44.350Z,100498.83
2023-06-30T10:57:21.008Z,100495.48
2023-06-30T11:00:07.973Z,100491.89
2023-06-30T11:02:48.574Z,100488.77
2023-06-30T11:05:27.304Z,100477.71
2023-06-30T11:08:08.687Z,100478.26
2023-06-30T11:10:46.659Z,100479.23
2023-06-30T11:13:37.539Z,100464.94
2023-06-30T11:16:11.262Z,100471.57
2023-06-30T11:18:45.752Z,100471.15
2023-06-30T11:21:18.148Z,100464.91
2023-06-30T11:23:51.842Z,100464.36
2023-06-30T11:26:25.686Z,100465.06
2023-06-30T11:28:58.160Z,100459.67
2023-06-30T11:31:38.127Z,100460.36
2023-06-30T11:34:10.670Z,100454.80
2023-06-30T11:36:42.872Z,100451.11
2023-06-30T11:39:17.873Z,100446.72
2023-06-30T11:41:50.157Z,100435.18
2023-06-30T11:44:22.624Z,100437.92
2023-06-30T11:46:58.644Z,100431.90
2023-06-30T11:49:36.449Z,100433.80
2023-06-30T11:52:10.324Z,100427.95
2023-06-30T11:54:43.639Z,100422.49
2023-06-30T11:57:15.928Z,100420.14
2023-06-30T11:59:50.329Z,100421.98
2023-06-30T12:02:22.760Z,100420.36
2023-06-30T12:04:55.641Z,100414.88
2023-06-30T12:07:28.214Z,100409.92
2023-06-30T12:10:07.509Z,100408.63
2023-06-30T12:12:40.075Z,100398.88
2023-06-30T12:15:15.988Z,100402.41
2023-06-30T12:17:48.736Z,100403.62
2023-06-30T12:20:32.064Z,100397.02
2023-06-30T12:23:05.406Z,100394.77
2023-06-30T12:25:38.789Z,100391.69
2023-06-30T12:28:13.972Z,100387.23
2023-06-30T12:30:47.790Z,100391.13
2023-06-30T12:33:24.504Z,100391.44
2023-06-30T12:35:56.794Z,100385.23
2023-06-30T12:38:29.326Z,100377.26
2023-06-30T12:41:01.841Z,100372.70
2023-06-30T12:43:35.042Z,100373.86
2023-06-30T12:46:07.872Z,100372.47
2023-06-30T12:48:40.155Z,100368.86
2023-06-30T12:51:12.518Z,100369.60
2023-06-30T12:53:44.804Z,100366.64
2023-06-30T12:56:17.648Z,100364.27
2023-06-30T12:58:50.248Z,100362.16
2023-06-30T13:01:22.637Z,100364.30
2023-06-30T13:03:55.098Z,100363.92
2023-06-30T13:06:27.786Z,100365.50
2023-06-30T13:09:00.222Z,100354.02
2023-06-30T13:11:32.921Z,100349.09
2023-06-30T13:14:05.118Z,100344.81
2023-06-30T13:16:38.008Z,100340.48
2023-06-30T13:19:11.841Z,100344.63
2023-06-30T13:21:44.114Z,100339.36
2023-06-30T13:24:16.356Z,100329.61
2023-06-30T13:26:48.601Z,100329.78
2023-06-30T13:29:20.926Z,100328.56
2023-06-30T13:31:53.398Z,100321.90
2023-06-30T13:34:26.269Z,100322.46
2023-06-30T13:36:58.540Z,100329.02
2023-06-30T13:39:31.119Z,100323.69
2023-06-30T13:42:03.985Z,100325.19
2023-06-30T13:44:37.908Z,100317.66
2023-06-30T13:47:10.429Z,100318.87
2023-06-30T13:49:42.634Z,100314.39
2023-06-30T13:52:15.074Z,100315.41
2023-06-30T13:54:47.249Z,100306.64
2023-06-30T13:57:20.366Z,100308.73
2023-06-30T13:59:53.274Z,100302.60
2023-06-30T14:02:25.576Z,100298.77
2023-06-30T14:04:59.438Z,100295.02
2023-06-30T14:07:32.258Z,100286.84
2023-06-30T14:10:05.683Z,100284.17
2023-06-30T14:12:38.084Z,100279.70
2023-06-30T14:15:12.335Z,100281.99
2023-06-30T14:17:44.488Z,100279.61
2023-06-30T14:20:17.019Z,100272.55
2023-06-30T14:22:49.356Z,100275.77
2023-06-30T14:25:24.185Z,100270.48
2023-06-30T14:27:56.552Z,100269.55
2023-06-30T14:30:33.297Z,100260.66
2023-06-30T14:33:05.945Z,100262.38
2023-06-30T14:35:38.155Z,100259.20
2023-06-30T14:38:10.448Z,100253.39
2023-06-30T14:40:43.022Z,100252.91
2023-06-30T14:43:15.374Z,100252.25
2023-06-30T14:45:48.004Z,100247.84
2023-06-30T14:48:20.617Z,100242.67
2023-06-30T14:50:52.843Z,100236.37
2023-06-30T14:53:25.339Z,100238.55
2023-06-30T14:55:58.940Z,100235.02
2023-06-30T14:58:31.216Z,100230.90
2023-06-30T15:01:03.732Z,100230.20
2023-06-30T15:03:37.041Z,100227.85
2023-06-30T15:06:09.223Z,100227.25
2023-06-30T15:08:42.004Z,100228.17
2023-06-30T15:11:14.345Z,100227.63
2023-06-30T15:13:46.726Z,100233.86
2023-06-30T15:16:19.316Z,100230.13
2023-06-30T15:18:51.715Z,100229.72
2023-06-30T15:21:24.176Z,100222.84
2023-06-30T15:23:56.507Z,100218.17
2023-06-30T15:26:29.593Z,100217.98
2023-06-30T15:29:02.050Z,100213.16
2023-06-30T15:31:34.530Z,100219.34
2023-06-30T15:34:06.802Z,100214.77
2023-06-30T15:36:39.025Z,100216.95
2023-06-30T15:39:11.635Z,100213.79
2023-06-30T15:41:45.880Z,100216.08
2023-06-30T15:44:18.208Z,100214.05
2023-06-30T15:46:51.185Z,100209.41
2023-06-30T15:49:23.904Z,100207.33
2023-06-30T15:51:56.464Z,100203.98
2023-06-30T15:54:28.849Z,100208.86
2023-06-30T15:57:01.107Z,100207.77
2023-06-30T15:59:33.420Z,100208.70
2023-06-30T16:02:07.775Z,100206.19
2023-06-30T16:04:39.983Z,100203.30
2023-06-30T16:07:12.432Z,100202.04
2023-06-30T16:09:44.784Z,100202.33
2023-06-30T16:12:17.545Z,100207.02
2023-06-30T16:14:49.794Z,100207.35
2023-06-30T16:17:22.237Z,100204.56
2023-06-30T16:19:54.495Z,100208.17
2023-06-30T16:22:26.703Z,100211.35
2023-06-30T16:24:59.036Z,100207.21
2023-06-30T16:27:31.322Z,100205.36
2023-06-30T16:30:24.944Z,100202.25
2023-06-30T16:33:00.192Z,100202.67
2023-06-30T16:35:34.565Z,100206.63
2023-06-30T16:38:07.390Z,100204.65
2023-06-30T16:40:39.891Z,100201.95
2023-06-30T16:43:12.196Z,100201.14
2023-06-30T16:45:44.964Z,100205.40
2023-06-30T16:48:17.653Z,100199.70
2023-06-30T16:50:50.087Z,100197.30
2023-06-30T16:53:23.555Z,100195.84
2023-06-30T16:55:57.326Z,100198.61
2023-06-30T16:58:31.117Z,100195.59
2023-06-30T17:01:03.540Z,100194.77
2023-06-30T17:03:35.959Z,100189.98
2023-06-30T17:06:08.539Z,100187.95
2023-06-30T17:08:40.996Z,100190.14
2023-06-30T17:11:13.384Z,100189.13
2023-06-30T17:13:45.897Z,100187.98
2023-06-30T17:16:18.210Z,100190.75
2023-06-30T17:18:50.691Z,100189.16
2023-06-30T17:21:22.957Z,100187.99
2023-06-30T17:23:55.305Z,100184.98
2023-06-30T17:26:27.692Z,100182.95
2023-06-30T17:28:59.730Z,100180.31
2023-06-30T17:31:32.230Z,100181.59
2023-06-30T17:34:05.047Z,100174.70
2023-06-30T17:36:37.838Z,100174.64
2023-06-30T17:39:10.150Z,100171.73
2023-06-30T17:41:42.797Z,100170.84
2023-06-30T17:44:15.078Z,100168.59
2023-06-30T17:46:47.331Z,100170.23
2023-06-30T17:49:28.451Z,100166.60
2023-06-30T17:52:00.919Z,100162.27
2023-06-30T17:54:33.809Z,100162.77
2023-06-30T17:57:06.744Z,100164.55
2023-06-30T17:59:38.908Z,100166.73
2023-06-30T18:02:11.481Z,100169.91
2023-06-30T18:04:43.859Z,100168.86
2023-06-30T18:07:16.141Z,100170.96
2023-06-30T18:09:48.748Z,100173.08
2023-06-30T18:12:21.655Z,100170.17
2023-06-30T18:14:53.979Z,100171.30
2023-06-30T18:17:26.362Z,100170.70
2023-06-30T18:19:58.690Z,100172.76
2023-06-30T18:22:31.154Z,100173.62
2023-06-30T18:25:03.561Z,100175.90
2023-06-30T18:27:35.966Z,100175.06
2023-06-30T18:30:10.233Z,100174.55
2023-06-30T18:32:42.931Z,100183.65
2023-06-30T18:35:15.398Z,100184.91
2023-06-30T18:37:47.635Z,100187.02
2023-06-30T18:40:19.882Z,100188.46
2023-06-30T18:42:52.525Z,100183.61
2023-06-30T18:45:25.016Z,100186.86
2023-06-30T18:47:57.487Z,100185.34
2023-06-30T18:50:29.897Z,100186.55
2023-06-30T18:53:02.161Z,100187.02
2023-06-30T18:55:34.687Z,100184.95
2023-06-30T18:58:06.989Z,100185.25
2023-06-30T19:00:39.265Z,100185.50
2023-06-30T19:03:15.709Z,100182.72
2023-06-30T19:05:48.848Z,100188.73
2023-06-30T19:08:21.524Z,100187.34
2023-06-30T19:10:53.723Z,100191.40
2023-06-30T19:13:26.402Z,100192.84
2023-06-30T19:15:58.640Z,100197.61
2023-06-30T19:18:31.039Z,100197.23
2023-06-30T19:21:03.667Z,100196.28
2023-06-30T19:23:37.380Z,100198.18
2023-06-30T19:26:09.917Z,100190.35
2023-06-30T19:28:44.554Z,100191.31
2023-06-30T19:31:17.229Z,100190.46
2023-06-30T19:33:49.828Z,100196.70
2023-06-30T19:36:22.472Z,100198.02
2023-06-30T19:38:54.691Z,100200.93
2023-06-30T19:41:28.104Z,100202.69
2023-06-30T19:44:00.635Z,100201.84
2023-06-30T19:46:34.646Z,100205.11
2023-06-30T19:49:07.783Z,100207.71
2023-06-30T19:51:40.378Z,100201.00
2023-06-30T19:54:13.857Z,100201.17
2023-06-30T19:56:46.213Z,100200.98
2023-06-30T19:59:19.113Z,100200.02
2023-06-30T20:01:55.958Z,100204.66
2023-06-30T20:04:29.720Z,100200.45
2023-06-30T20:07:02.050Z,100205.42
2023-06-30T20:09:35.157Z,100205.34
2023-06-30T20:12:08.914Z,100200.83
2023-06-30T20:14:41.221Z,100204.15
2023-06-30T20:17:13.472Z,100206.94
2023-06-30T20:19:46.240Z,100208.34
2023-06-30T20:22:18.770Z,100206.45
2023-06-30T20:24:51.300Z,100208.63
2023-06-30T20:27:23.674Z,100208.74
2023-06-30T20:29:56.782Z,100206.30
2023-06-30T20:32:29.191Z,100207.50
2023-06-30T20:35:01.471Z,100210.16
2023-06-30T20:37:33.764Z,100214.39
2023-06-30T20:40:08.615Z,100214.71
2023-06-30T20:42:41.072Z,100213.48
2023-06-30T20:45:13.653Z,100221.94
2023-06-30T20:47:46.004Z,100220.27
2023-06-30T20:50:18.513Z,100218.96
2023-06-30T20:52:50.836Z,100220.89
2023-06-30T20:55:23.375Z,100226.36
2023-06-30T20:57:55.996Z,100222.04
2023-06-30T21:00:29.101Z,100221.52
2023-06-30T21:03:01.503Z,100214.43
2023-06-30T21:05:34.143Z,100216.61
2023-06-30T21:08:06.825Z,100216.45
2023-06-30T21:10:39.063Z,100214.41
2023-06-30T21:13:11.290Z,100215.14
2023-06-30T21:15:43.726Z,100216.30
2023-06-30T21:18:16.973Z,100210.73
2023-06-30T21:20:49.595Z,100209.40
2023-06-30T21:23:22.044Z,100208.90
2023-06-30T21:25:55.015Z,100212.07
2023-06-30T21:28:27.321Z,100213.64
2023-06-30T21:31:01.987Z,100216.78
2023-06-30T21:33:34.400Z,100217.72
2023-06-30T21:36:07.262Z,100219.89
2023-06-30T21:38:40.095Z,100223.30
2023-06-30T21:41:12.592Z,100226.36
2023-06-30T21:43:45.110Z,100223.89
2023-06-30T21:46:18.623Z,100224.23
2023-06-30T21:48:51.299Z,100222.66
2023-06-30T21:51:23.587Z,100226.40
2023-06-30T21:53:57.030Z,100224.56
2023-06-30T21:56:29.285Z,100224.83
2023-06-30T21:59:03.062Z,100222.67
2023-06-30T22:01:41.325Z,100226.36
2023-06-30T22:04:14.523Z,100228.60
2023-06-30T22:06:48.466Z,100233.73
2023-06-30T22:09:20.851Z,100229.85
2023-06-30T22:11:53.142Z,100230.98
2023-06-30T22:14:26.094Z,100233.20
2023-06-30T22:16:58.671Z,100230.47
2023-06-30T22:19:31.022Z,100233.05
2023-06-30T22:22:03.719Z,100234.12
2023-06-30T22:24:36.119Z,100233.95
2023-06-30T22:27:09.503Z,100227.24
2023-06-30T22:29:41.906Z,100223.08
2023-06-30T22:32:15.605Z,100224.90
2023-06-30T22:34:49.427Z,100224.77
2023-06-30T22:37:22.042Z,100222.38
2023-06-30T22:39:54.497Z,100224.41
2023-06-30T22:42:26.797Z,100223.92
2023-06-30T22:44:59.178Z,100222.44
2023-06-30T22:47:31.499Z,100222.95
2023-06-30T22:50:03.967Z,100224.13
2023-06-30T22:52:36.423Z,100220.05
2023-06-30T22:55:09.940Z,100216.77
2023-06-30T22:57:42.211Z,100218.24
2023-06-30T23:00:16.896Z,100216.20
2023-06-30T23:02:49.418Z,100212.94
2023-06-30T23:05:22.583Z,100210.85
2023-06-30T23:07:54.994Z,100217.88
2023-06-30T23:10:27.260Z,100217.05
2023-06-30T23:12:59.802Z,100217.01
2023-06-30T23:15:32.261Z,100217.30
2023-06-30T23:18:06.680Z,100218.27
2023-06-30T23:20:39.004Z,100217.77
2023-06-30T23:23:11.585Z,100213.70
2023-06-30T23:25:43.945Z,100213.89
2023-06-30T23:28:19.210Z,100209.06
2023-06-30T23:30:52.078Z,100204.45
2023-06-30T23:33:24.860Z,100198.70
2023-06-30T23:35:57.140Z,100194.96
2023-06-30T23:38:29.367Z,100191.98
2023-06-30T23:41:01.637Z,100193.66
2023-06-30T23:43:34.003Z,100192.25
2023-06-30T23:46:06.496Z,100191.80
2023-06-30T23:48:38.829Z,100192.58
2023-06-30T23:51:11.328Z,100192.08
2023-06-30T23:53:43.588Z,100196.27
2023-06-30T23:56:15.927Z,100193.91
2023-06-30T23:58:48.362Z,100198.88
